[2024-10-26 00:00:00, 2024-10-26 23:59:59] previous next
| time | temperature | air pressure | humidity | solar radiation | wind speed |
|---|---|---|---|---|---|
| 2024-10-26 07:29:52 | 10.6 | 1008.7 | 99.0 | 0.0 | 0.0 |
| 2024-10-26 07:50:20 | 12.3 | 1008.7 | 99.0 | 33.9 | 0.0 |
| 2024-10-26 08:12:27 | 12.1 | 1008.7 | 99.0 | 0.0 | 0.0 |
| 2024-10-26 08:53:15 | 14.0 | 1008.3 | 99.0 | 46.6 | 0.0 |
| 2024-10-26 09:13:15 | 15.5 | 1008.0 | 99.0 | 55.7 | 0.0 |
| 2024-10-26 09:33:15 | 15.9 | 1008.3 | 99.0 | 73.5 | 0.0 |
| 2024-10-26 09:53:15 | 16.2 | 1008.3 | 99.0 | 61.2 | 1.7 |
| 2024-10-26 10:13:15 | 18.8 | 1008.3 | 85.0 | 57.2 | 0.0 |
| 2024-10-26 10:33:15 | 18.6 | 1008.0 | 85.0 | 72.0 | 0.7 |
| 2024-10-26 10:53:15 | 19.2 | 1008.0 | 85.0 | 119.0 | 0.0 |
| 2024-10-26 11:13:15 | 20.8 | 1008.0 | 79.0 | 207.5 | 1.0 |
| 2024-10-26 11:33:15 | 21.1 | 1007.7 | 78.0 | 237.1 | 0.0 |
| 2024-10-26 11:53:15 | 22.4 | 1007.7 | 75.0 | 254.6 | 0.0 |
| 2024-10-26 12:13:16 | 23.0 | 1007.3 | 73.0 | 248.7 | 0.0 |
| 2024-10-26 12:33:15 | 25.1 | 1007.3 | 67.0 | 263.8 | 0.0 |
| 2024-10-26 12:53:17 | 26.3 | 1007.3 | 63.0 | 264.5 | 0.0 |
| 2024-10-26 13:13:15 | 26.6 | 1006.6 | 61.0 | 254.5 | 0.0 |
| 2024-10-26 13:33:15 | 25.5 | 1006.6 | 64.0 | 239.8 | 0.0 |
| 2024-10-26 13:53:15 | 26.0 | 1006.3 | 63.0 | 226.7 | 0.0 |
| 2024-10-26 14:13:15 | 24.8 | 1006.3 | 66.0 | 215.4 | 0.0 |
| 2024-10-26 14:33:15 | 23.6 | 1006.0 | 67.0 | 196.9 | 0.0 |
| 2024-10-26 14:53:15 | 23.4 | 1006.0 | 68.0 | 174.9 | 0.0 |
CSV export: /station/IWELLEN5/data?period=20241026T000000/20241026T235959&format=csv&tz=GMT